Latest Weather Observations for Double Island Point

IDQ60801

Issued at 4:32 pm EST Thursday 23 February 2017 (issued every 30 minutes, with the page automatically refreshed every 10 minutes)

About weather observations | Map of weather stations | Latest weather observations for QLD | Other Formats
Station Details ID: 040068 Name: DOUBLE ISLAND POINT LIGHTHOUSE Lat: -25.93 Lon: 153.19 Height: 95.64 m
Data from the previous 72 hours. | See also: Recent months at Double Island Point
Date/Time
EST
Temp
°C
App
Temp
°C
Dew
Point
°C
Rel
Hum
%
Delta-T
°C
Wind Press
QNH
hPa
Press
MSL
hPa
Rain since
9am
mm
Dir  Spd
km/h
Gust
km/h
Spd
kts
Gust
kts
23/04:00pm 25.8 21.6 19.7 69 4.0 SE 41 46 22 25 1016.4 1015.9 0.0
23/03:30pm 26.2 22.6 19.3 65 4.5 SE 37 44 20 24 1016.6 1016.1 0.0
23/03:00pm 26.4 22.6 19.8 67 4.3 SE 39 43 21 23 1016.6 1016.1 0.0
23/02:30pm 26.7 23.1 19.3 64 4.8 SE 37 39 20 21 1016.7 1016.2 0.0
23/02:00pm 27.1 23.9 19.4 62 5.0 SE 35 39 19 21 1016.9 1016.4 0.0
23/01:30pm 26.9 23.1 19.0 62 5.1 SE 37 41 20 22 1016.9 1016.4 0.0
23/01:00pm 27.2 23.2 18.5 59 5.6 SE 37 43 20 23 1017.3 1016.8 0.0
23/12:30pm 27.6 23.1 18.3 57 5.9 SSE 39 43 21 23 1017.4 1016.9 0.0
23/12:00pm 27.4 23.5 18.7 59 5.6 SE 37 43 20 23 1017.7 1017.2 0.0
23/11:30am 27.3 23.3 18.6 59 5.6 SE 37 43 20 23 1018.1 1017.6 0.0
23/11:00am 27.2 23.4 19.0 61 5.3 SE 37 41 20 22 1018.1 1017.6 0.0
23/10:30am 27.2 23.8 19.0 61 5.3 SE 35 43 19 23 1018.4 1017.9 0.0
23/10:00am 26.9 22.7 19.0 62 5.1 SE 39 44 21 24 1018.4 1017.9 0.0
23/09:30am 26.7 22.6 19.1 63 4.9 SE 39 43 21 23 1018.3 1017.8 0.0
23/09:00am 26.5 21.8 18.6 62 5.0 SE 41 46 22 25 1018.1 1017.6 0.0
23/08:30am 26.4 21.8 18.8 63 4.9 SE 41 48 22 26 1017.9 1017.4 0.0
23/08:00am 25.9 21.8 19.1 66 4.4 ESE 39 48 21 26 1017.8 1017.3 0.0
23/07:30am 25.8 21.3 19.0 66 4.4 SE 41 48 22 26 1017.5 1017.0 0.0
23/07:00am 24.5 20.1 20.2 77 2.8 SE 43 48 23 26 1017.1 1016.6 0.0
23/06:30am 24.3 20.1 19.8 76 2.9 SSE 41 48 22 26 1016.9 1016.4 0.0
23/06:00am 24.2 20.4 19.7 76 2.9 SSE 39 44 21 24 1016.7 1016.2 0.0
23/05:30am 24.0 19.5 19.1 74 3.1 SE 41 46 22 25 1016.3 1015.8 0.0
23/05:00am 24.0 20.2 19.7 77 2.8 SE 39 46 21 25 1016.5 1016.0 0.0
23/04:30am 23.9 19.3 18.8 73 3.2 SE 41 48 22 26 1016.5 1016.0 0.0
23/04:00am 23.9 18.9 18.8 73 3.2 SE 43 50 23 27 1016.0 1015.5 0.0
23/03:30am 24.0 19.0 18.9 73 3.3 SE 43 48 23 26 1016.3 1015.8 0.0
23/03:00am 24.0 19.2 19.3 75 3.0 SE 43 48 23 26 1016.2 1015.7 0.0
23/02:30am 24.0 19.2 19.3 75 3.0 SE 43 50 23 27 1016.5 1016.0 0.0
23/02:00am 24.1 19.3 19.2 74 3.1 SE 43 48 23 26 1016.6 1016.1 0.0
23/01:30am 24.1 18.9 18.7 72 3.4 SE 44 50 24 27 1016.7 1016.2 0.0
23/01:00am 24.1 19.3 19.2 74 3.1 SE 43 50 23 27 1017.0 1016.5 0.0
23/12:30am 24.2 18.8 19.1 73 3.3 SE 46 52 25 28 1017.3 1016.8 0.0
23/12:00am 24.3 18.9 19.1 73 3.3 SE 46 54 25 29 1017.4 1016.9 0.0
 
Date/Time
EST
Temp
°C
App
Temp
°C
Dew
Point
°C
Rel
Hum
%
Delta-T
°C
Wind Press
QNH
hPa
Press
MSL
hPa
Rain since
9am
mm
Dir  Spd
km/h
Gust
km/h
Spd
kts
Gust
kts
22/11:30pm 24.4 18.2 19.2 73 3.3 SE 50 57 27 31 1017.6 1017.1 0.0
22/11:00pm 24.5 19.1 19.3 73 3.3 SE 46 54 25 29 1018.0 1017.5 0.0
22/10:30pm 24.6 18.7 19.0 71 3.6 SE 48 57 26 31 1018.0 1017.5 0.0
22/10:00pm 24.7 18.1 19.1 71 3.6 SE 52 59 28 32 1017.8 1017.3 0.0
22/09:30pm 24.8 18.0 19.4 72 3.5 SE 54 63 29 34 1017.8 1017.3 0.0
22/09:00pm 24.8 17.9 19.2 71 3.6 SE 54 59 29 32 1017.7 1017.2 0.0
22/08:30pm 24.8 18.8 19.6 73 3.4 SE 50 57 27 31 1017.6 1017.1 0.0
22/08:00pm 24.8 18.9 19.8 74 3.2 SE 50 57 27 31 1017.5 1017.0 0.0
22/07:30pm 24.8 18.4 19.4 72 3.5 SE 52 57 28 31 1017.1 1016.6 0.0
22/07:00pm 24.8 18.8 19.6 73 3.4 SE 50 57 27 31 1017.1 1016.6 0.0
22/06:30pm 24.9 19.1 19.1 70 3.7 SE 48 56 26 30 1017.1 1016.6 0.0
22/06:00pm 24.9 19.3 19.5 72 3.5 SE 48 56 26 30 1016.7 1016.2 0.0
22/05:30pm 25.1 19.1 19.5 71 3.6 SE 50 57 27 31 1016.6 1016.1 0.0
22/05:00pm 25.2 18.8 19.6 71 3.6 SE 52 59 28 32 1016.2 1015.7 0.0
22/04:30pm 25.2 20.5 20.7 76 3.0 SE 46 54 25 29 1016.2 1015.7 0.0
22/04:00pm 25.4 20.3 19.8 71 3.6 SE 46 54 25 29 1015.9 1015.4 0.0
22/03:30pm 25.6 20.0 19.5 69 3.9 SE 48 57 26 31 1016.0 1015.5 0.0
22/03:00pm 25.6 20.1 19.7 70 3.8 SE 48 54 26 29 1016.3 1015.8 0.0
22/02:30pm 25.7 19.9 20.0 71 3.7 SSE 50 57 27 31 1016.3 1015.8 0.0
22/02:00pm 25.9 19.9 19.5 68 4.1 SE 50 56 27 30 1016.6 1016.1 0.0
22/01:30pm 26.4 21.0 20.0 68 4.2 SE 48 56 26 30 1016.7 1016.2 0.0
22/01:00pm 26.3 20.6 20.2 69 4.0 SE 50 56 27 30 1017.0 1016.5 0.0
22/12:30pm 26.4 21.1 20.3 69 4.0 SE 48 56 26 30 1017.2 1016.7 0.0
22/12:00pm 26.8 21.6 21.1 71 3.8 SE 50 57 27 31 1017.4 1016.9 0.0
22/11:30am 27.3 23.1 21.6 71 3.8 SE 46 52 25 28 1018.0 1017.5 0.0
22/11:00am 26.2 21.9 21.4 75 3.2 SE 46 54 25 29 1017.9 1017.4 0.0
22/10:30am 26.3 22.0 21.5 75 3.2 SE 46 52 25 28 1018.1 1017.6 0.0
22/10:00am 26.0 22.2 21.4 76 3.1 SE 43 50 23 27 1018.3 1017.8 0.0
22/09:30am 26.2 21.6 20.1 69 4.0 SE 44 52 24 28 1018.3 1017.8 0.0
22/09:00am 26.0 21.1 20.3 71 3.7 SE 46 52 25 28 1018.1 1017.6 0.0
22/08:30am 26.4 22.1 20.7 71 3.8 SE 44 50 24 27 1018.1 1017.6 0.0
22/08:00am 26.6 22.7 21.1 72 3.6 SE 43 48 23 26 1018.2 1017.7 0.0
22/07:30am 25.7 21.6 21.1 76 3.0 SE 44 50 24 27 1017.7 1017.2 0.0
22/07:00am 25.2 20.8 21.3 79 2.6 SE 46 52 25 28 1017.5 1017.0 0.0
22/06:30am 24.9 20.3 20.8 78 2.7 SE 46 52 25 28 1017.1 1016.6 0.0
22/06:00am 24.9 20.9 21.2 80 2.4 SE 44 50 24 27 1016.8 1016.3 0.0
22/05:30am 24.7 21.3 20.6 78 2.7 SE 39 46 21 25 1016.7 1016.2 0.0
22/05:00am 24.7 21.0 20.8 79 2.6 SE 41 46 22 25 1016.4 1015.9 0.0
22/04:30am 24.7 21.1 21.0 80 2.4 SE 41 46 22 25 1016.2 1015.7 0.0
22/04:00am 24.7 21.5 21.0 80 2.4 SE 39 48 21 26 1016.0 1015.5 0.0
22/03:30am 24.7 20.3 20.6 78 2.7 SE 44 50 24 27 1016.0 1015.5 0.0
22/03:00am 24.7 20.9 20.6 78 2.7 SE 41 48 22 26 1016.0 1015.5 0.0
22/02:30am 24.7 21.0 20.8 79 2.6 SE 41 46 22 25 1016.1 1015.6 0.0
22/02:00am 24.7 20.8 20.4 77 2.8 SE 41 48 22 26 1016.1 1015.6 0.0
22/01:30am 24.8 20.9 20.3 76 2.9 SE 41 50 22 27 1016.3 1015.8 0.0
22/01:00am 24.8 21.1 20.7 78 2.7 SE 41 48 22 26 1016.4 1015.9 0.0
22/12:30am 24.9 20.8 20.8 78 2.7 ESE 43 50 23 27 1016.4 1015.9 0.0
22/12:00am 25.1 21.2 21.4 80 2.5 SE 44 54 24 29 1016.6 1016.1 0.0
 
Date/Time
EST
Temp
°C
App
Temp
°C
Dew
Point
°C
Rel
Hum
%
Delta-T
°C
Wind Press
QNH
hPa
Press
MSL
hPa
Rain since
9am
mm
Dir  Spd
km/h
Gust
km/h
Spd
kts
Gust
kts
21/11:30pm 25.1 20.6 21.0 78 2.7 SE 46 54 25 29 1016.7 1016.2 0.0
21/11:00pm 25.1 20.8 21.4 80 2.5 SE 46 54 25 29 1016.6 1016.1 0.0
21/10:30pm 25.1 20.2 21.8 82 2.2 SE 50 54 27 29 1016.9 1016.4 0.0
21/10:00pm 25.1 21.3 22.4 85 1.8 SE 46 54 25 29 1017.1 1016.6 0.0
21/09:30pm 25.2 21.0 22.3 84 2.0 SE 48 56 26 30 1017.0 1016.5 0.0
21/09:00pm 25.4 21.2 23.1 87 1.6 SE 50 54 27 29 1017.1 1016.6 0.0
21/08:30pm 25.5 22.1 23.2 87 1.6 SE 46 52 25 28 1016.9 1016.4 0.0
21/08:00pm 25.6 23.1 23.7 89 1.3 SE 43 50 23 27 1016.7 1016.2 0.0
21/07:30pm 25.6 22.4 23.5 88 1.4 SE 46 54 25 29 1016.4 1015.9 0.0
21/07:00pm 25.6 22.2 23.1 86 1.7 SE 46 54 25 29 1016.3 1015.8 0.0
21/06:30pm 25.7 23.0 22.6 83 2.1 SE 41 50 22 27 1016.1 1015.6 0.0
21/06:00pm 25.8 22.9 22.3 81 2.4 SE 41 48 22 26 1015.8 1015.2 0.0
21/05:30pm 26.1 23.5 22.8 82 2.2 SE 41 50 22 27 1015.5 1014.9 0.0
21/05:00pm 26.2 22.7 22.3 79 2.6 SE 44 52 24 28 1015.1 1014.5 0.0
21/04:30pm 26.6 23.1 22.2 77 3.0 SE 44 52 24 28 1014.8 1014.2 0.0
21/04:00pm 26.6 22.5 21.8 75 3.2 SE 46 52 25 28 1014.7 1014.1 0.0
21/03:30pm 27.1 23.7 22.5 76 3.1 SE 44 50 24 27 1014.7 1014.1 0.0
21/03:00pm 27.2 24.0 22.4 75 3.2 SE 43 48 23 26 1014.9 1014.3 0.0
21/02:30pm 27.6 24.7 22.3 73 3.6 SE 41 46 22 25 1015.0 1014.4 0.0
21/02:00pm 27.6 25.2 22.5 74 3.5 SE 39 44 21 24 1015.1 1014.5 0.0
21/01:30pm 28.1 26.2 22.8 73 3.6 SSE 37 41 20 22 1015.4 1014.8 0.0
21/01:00pm 28.3 26.4 23.4 75 3.4 SE 39 44 21 24 1015.5 1014.9 0.0
21/12:30pm 28.1 25.7 22.6 72 3.7 SE 39 44 21 24 1015.8 1015.2 0.0
21/12:00pm 27.9 25.8 23.1 75 3.3 SSE 39 43 21 23 1016.1 1015.6 0.0
21/11:30am 27.5 25.3 22.9 76 3.1 SSE 39 43 21 23 1016.1 1015.6 0.0
21/11:00am 28.3 26.4 22.8 72 3.8 SSE 37 43 20 23 1016.1 1015.6 0.0
21/10:30am 28.1 26.3 23.0 74 3.5 SSE 37 43 20 23 1016.3 1015.8 0.0
21/10:00am 28.2 27.0 23.3 75 3.4 SSE 35 39 19 21 1016.5 1016.0 0.0
21/09:30am 27.8 26.9 23.2 76 3.2 SSE 33 37 18 20 1016.5 1016.0 0.0
21/09:00am 27.9 27.8 23.5 77 3.0 SSE 30 33 16 18 1016.5 1016.0 0.0
21/08:30am 27.3 26.4 22.9 77 3.0 SSE 32 35 17 19 1016.2 1015.7 0.0
21/08:00am 27.3 27.2 23.5 80 2.6 SSE 30 33 16 18 1016.1 1015.6 0.0
21/07:30am 27.1 27.0 23.6 81 2.4 SE 30 33 16 18 1015.8 1015.2 0.0
21/07:00am 26.5 26.9 23.8 85 1.9 SE 28 33 15 18 1015.5 1014.9 0.0
21/06:30am 25.9 26.5 24.1 90 1.2 SE 28 32 15 17 1015.1 1014.5 0.0
21/06:00am 25.6 26.5 24.0 91 1.1 SE 26 28 14 15 1014.7 1014.1 0.0
21/05:30am 25.3 26.2 23.9 92 1.0 SE 26 30 14 16 1014.3 1013.7 0.0
21/05:00am 25.2 25.9 23.6 91 1.1 SE 26 30 14 16 1013.9 1013.3 0.0
21/04:30am 25.3 25.8 23.9 92 1.0 SE 28 32 15 17 1013.3 1012.8 0.0
21/04:00am 25.3 26.2 23.9 92 1.0 ESE 26 32 14 17 1013.0 1012.5 0.0
21/03:30am 25.3 25.1 24.1 93 0.8 ESE 32 35 17 19 1012.8 1012.3 0.0
21/03:00am 25.2 24.9 24.2 94 0.7 ESE 33 39 18 21 1012.6 1012.1 0.0
21/02:30am 25.3 25.2 24.3 94 0.7 SE 32 37 17 20 1012.7 1012.2 0.0
21/02:00am 25.2 25.0 24.0 93 0.8 SE 32 37 17 20 1012.7 1012.2 0.0
21/01:30am 25.3 24.8 23.9 92 1.0 SE 33 39 18 21 1013.0 1012.5 0.0
21/01:00am 25.4 25.5 24.0 92 1.0 ESE 30 35 16 19 1013.3 1012.8 0.0
21/12:30am 25.6 26.4 24.4 93 0.8 SE 28 32 15 17 1013.6 1013.0 0.0
21/12:00am 25.6 26.2 24.2 92 1.0 ESE 28 33 15 18 1013.7 1013.1 0.0
 
Date/Time
EST
Temp
°C
App
Temp
°C
Dew
Point
°C
Rel
Hum
%
Delta-T
°C
Wind Press
QNH
hPa
Press
MSL
hPa
Rain since
9am
mm
Dir  Spd
km/h
Gust
km/h
Spd
kts
Gust
kts
20/11:30pm 25.6 26.2 24.2 92 1.0 ESE 28 33 15 18 1013.7 1013.1 0.0
20/11:00pm 25.6 28.2 24.9 96 0.5 ESE 20 24 11 13 1013.9 1013.3 0.0
20/10:30pm 25.5 27.8 24.1 92 1.0 ESE 19 20 10 11 1014.0 1013.4 0.0
20/10:00pm 25.4 27.8 24.2 93 0.8 ESE 19 24 10 13 1014.1 1013.5 0.0
20/09:30pm 25.4 27.4 24.0 92 1.0 ESE 20 24 11 13 1013.8 1013.2 0.0
20/09:00pm 25.4 27.3 23.8 91 1.1 ESE 20 28 11 15 1013.6 1013.0 0.0
20/08:30pm 25.5 26.6 23.6 89 1.3 ESE 24 28 13 15 1012.9 1012.4 0.0
20/08:00pm 25.5 26.3 23.2 87 1.6 ESE 24 28 13 15 1012.5 1012.0 0.0
20/07:30pm 25.4 25.9 22.7 85 1.8 ESE 24 30 13 16 1012.1 1011.6 0.0
20/07:00pm 25.3 25.9 23.4 89 1.3 ESE 26 30 14 16 1011.6 1011.1 0.0
20/06:30pm 25.3 25.6 23.0 87 1.6 ESE 26 30 14 16 1011.3 1010.8 0.0
20/06:00pm 25.4 25.6 22.7 85 1.8 ESE 26 30 14 16 1010.8 1010.3 0.0
20/05:30pm 25.6 25.5 22.3 82 2.2 ESE 26 30 14 16 1010.4 1009.9 0.0
20/05:00pm 26.0 26.5 22.7 82 2.2 ESE 24 32 13 17 1009.8 1009.3 0.0

Other Formats:

Comma delimited format used in spreadsheet applications
http://www.bom.gov.au/fwo/IDQ60801/IDQ60801.94584.axf

JavaScript Object Notation format (JSON) in row-major order
http://www.bom.gov.au/fwo/IDQ60801/IDQ60801.94584.json